Time;durP1;ratioP1;P1;durP2;ratioP2;P2;SDS_P1;SDS_P2;PMS_P1;PMS_P2;Temp;Humidity;BMP_temperature;BMP_pressure;BME280_temperature;BME280_humidity;BME280_pressure;Samples;Min_cycle;Max_cycle;Signal;HPM_P1;HPM_P2
2022/10/19 00:01:30;;;;;;;8.23;2.00;;;;;;;12.69;89.89;101603.88;5011453;28;20052;-44
2022/10/19 00:04:17;;;;;;;11.82;2.20;;;;;;;12.69;89.93;101603.88;5009223;28;20539;-48
2022/10/19 00:07:04;;;;;;;12.38;3.42;;;;;;;12.68;89.84;101597.50;5017225;28;20053;-43
2022/10/19 00:09:51;;;;;;;11.68;2.63;;;;;;;12.69;90.11;101599.13;5014280;28;20389;-44
2022/10/19 00:12:38;;;;;;;11.15;2.35;;;;;;;12.70;90.09;101600.75;5006438;28;20057;-47
2022/10/19 00:15:25;;;;;;;11.20;2.58;;;;;;;12.70;89.93;101598.00;5008440;28;20081;-46
2022/10/19 00:18:12;;;;;;;7.97;2.17;;;;;;;12.71;89.89;101591.25;5010337;28;20046;-43
2022/10/19 00:21:04;;;;;;;12.23;2.67;;;;;;;12.73;90.00;101585.38;5009126;28;20045;-43
2022/10/19 00:23:51;;;;;;;10.18;1.95;;;;;;;12.73;90.01;101585.38;5016119;28;20050;-48
2022/10/19 00:26:38;;;;;;;12.63;2.50;;;;;;;12.73;90.06;101594.50;5022531;28;20061;-42
2022/10/19 00:29:25;;;;;;;12.38;2.80;;;;;;;12.73;90.00;101588.94;5015607;28;20050;-45
2022/10/19 00:32:12;;;;;;;10.13;2.17;;;;;;;12.73;90.10;101588.94;5007631;28;20058;-50
2022/10/19 00:35:00;;;;;;;13.07;2.30;;;;;;;12.74;90.20;101593.38;5005971;28;20053;-43
2022/10/19 00:37:47;;;;;;;15.20;2.40;;;;;;;12.75;90.05;101591.41;5009470;28;20045;-50
2022/10/19 00:40:38;;;;;;;7.95;2.40;;;;;;;12.74;90.09;101584.22;5007148;28;20411;-43
2022/10/19 00:43:28;;;;;;;15.63;2.33;;;;;;;12.74;90.02;101586.97;5016070;28;20046;-43
2022/10/19 00:46:15;;;;;;;7.72;2.05;;;;;;;12.73;89.88;101583.38;5008701;28;20080;-43
2022/10/19 00:49:11;;;;;;;18.80;4.72;;;;;;;12.72;89.83;101579.00;5013686;28;20120;-43
2022/10/19 00:52:11;;;;;;;12.10;2.60;;;;;;;12.72;90.17;101579.00;5007794;28;20037;-43
2022/10/19 00:54:59;;;;;;;6.57;2.30;;;;;;;12.71;90.09;101571.81;5013775;28;20054;-44
2022/10/19 00:57:46;;;;;;;18.55;2.70;;;;;;;12.71;89.89;101569.03;5006718;28;20511;-46
2022/10/19 01:00:35;;;;;;;13.30;2.58;;;;;;;12.70;90.16;101561.88;5007256;28;20164;-45
2022/10/19 01:03:22;;;;;;;10.60;2.22;;;;;;;12.68;90.00;101558.59;5012941;28;20061;-44
2022/10/19 01:06:10;;;;;;;14.80;2.47;;;;;;;12.67;90.20;101557.00;5016122;28;20054;-44
2022/10/19 01:08:57;;;;;;;14.15;2.00;;;;;;;12.66;90.26;101566.47;5011083;28;20053;-42
2022/10/19 01:12:25;;;;;;;13.40;2.53;;;;;;;12.64;90.22;101563.22;5008348;28;20141;-42
2022/10/19 01:15:32;;;;;;;12.25;2.60;;;;;;;12.57;90.43;101568.50;5020440;28;20478;-43
2022/10/19 01:18:49;;;;;;;12.80;2.60;;;;;;;12.54;90.63;101562.81;5016984;28;20053;-42
2022/10/19 01:22:11;;;;;;;13.60;2.88;;;;;;;12.48;90.91;101553.88;5008119;28;20061;-42
2022/10/19 01:25:20;;;;;;;15.05;3.00;;;;;;;12.45;90.99;101545.38;5006799;28;20438;-43
2022/10/19 01:28:16;;;;;;;17.35;3.63;;;;;;;12.41;91.44;101547.22;5007398;28;20054;-48
2022/10/19 01:31:12;;;;;;;16.58;2.45;;;;;;;12.39;91.78;101550.31;5009522;28;20068;-41
2022/10/19 01:34:27;;;;;;;11.65;2.95;;;;;;;12.37;92.12;101552.63;5024847;28;20045;-42
2022/10/19 01:37:39;;;;;;;11.85;2.40;;;;;;;12.35;92.10;101565.22;5006222;28;20060;-42
2022/10/19 01:40:35;;;;;;;16.33;3.08;;;;;;;12.34;92.54;101563.63;5008532;28;20056;-42
2022/10/19 01:43:30;;;;;;;13.65;2.95;;;;;;;12.32;92.90;101561.16;5007147;28;20083;-43
2022/10/19 01:46:26;;;;;;;17.73;3.90;;;;;;;12.33;92.93;101562.81;5008764;28;20714;-41
2022/10/19 01:49:19;;;;;;;13.65;2.90;;;;;;;12.31;93.16;101551.19;5006980;28;20049;-48
2022/10/19 01:52:10;;;;;;;12.88;2.95;;;;;;;12.30;93.40;101546.81;5014391;28;20052;-42
2022/10/19 01:55:00;;;;;;;10.45;2.58;;;;;;;12.31;93.47;101533.75;5010307;28;20053;-42
2022/10/19 01:58:02;;;;;;;14.50;2.42;;;;;;;12.31;93.78;101526.22;5008073;28;20057;-42
2022/10/19 02:00:55;;;;;;;10.20;1.98;;;;;;;12.30;93.93;101515.44;5009615;28;20134;-43
2022/10/19 02:03:42;;;;;;;11.43;2.00;;;;;;;12.30;94.09;101512.69;5007132;28;20720;-42
2022/10/19 02:06:29;;;;;;;13.65;2.15;;;;;;;12.28;94.25;101501.09;5008424;28;20501;-43
2022/10/19 02:09:17;;;;;;;15.88;3.63;;;;;;;12.28;94.15;101501.09;5008346;28;20448;-42
2022/10/19 02:12:08;;;;;;;11.90;2.67;;;;;;;12.27;94.24;101493.91;5009264;28;20054;-43
2022/10/19 02:14:59;;;;;;;11.25;3.33;;;;;;;12.27;94.29;101491.97;5005563;28;20045;-42
2022/10/19 02:17:50;;;;;;;8.93;2.30;;;;;;;12.25;94.26;101480.38;5024680;28;20057;-47
2022/10/19 02:20:37;;;;;;;7.85;1.73;;;;;;;12.24;94.17;101467.63;5006107;28;20053;-42
2022/10/19 02:23:26;;;;;;;11.70;2.10;;;;;;;12.24;94.11;101470.41;5010401;28;20566;-47
2022/10/19 02:26:13;;;;;;;7.60;2.03;;;;;;;12.24;94.11;101464.88;5005450;28;20046;-42
2022/10/19 02:29:00;;;;;;;6.43;1.52;;;;;;;12.23;93.83;101463.25;5010813;28;20080;-43
2022/10/19 02:31:48;;;;;;;11.60;2.08;;;;;;;12.23;93.73;101463.25;5011626;28;20037;-43
2022/10/19 02:34:36;;;;;;;5.93;2.03;;;;;;;12.23;93.76;101435.50;5008959;28;20042;-43
2022/10/19 02:37:23;;;;;;;7.93;1.67;;;;;;;12.22;93.50;101439.41;5007773;28;20054;-46
2022/10/19 02:40:11;;;;;;;12.55;2.92;;;;;;;12.23;93.33;101431.91;5010067;28;20054;-44
2022/10/19 02:43:04;;;;;;;3.97;1.42;;;;;;;12.21;93.00;101430.25;5002130;28;20048;-42
2022/10/19 02:46:00;;;;;;;9.07;2.28;;;;;;;12.21;93.03;101421.94;5006653;28;20060;-42
2022/10/19 02:48:50;;;;;;;8.82;1.85;;;;;;;12.21;92.74;101427.50;5004676;28;20296;-52
2022/10/19 02:52:03;;;;;;;7.32;1.80;;;;;;;12.21;92.88;101419.16;5003607;28;20046;-43
2022/10/19 02:54:50;;;;;;;12.90;1.92;;;;;;;12.21;92.62;101404.47;5005651;28;20341;-42
2022/10/19 02:57:37;;;;;;;11.73;1.42;;;;;;;12.22;92.62;101428.31;5006198;28;20054;-43
2022/10/19 03:00:56;;;;;;;6.95;1.75;;;;;;;12.23;92.38;101404.97;5100001;22;20053;31
2022/10/19 03:03:43;;;;;;;5.40;1.60;;;;;;;12.22;92.21;101411.66;4968518;28;20050;-44
2022/10/19 03:06:30;;;;;;;8.68;2.25;;;;;;;12.22;92.01;101408.88;4985783;28;20050;-44
2022/10/19 03:09:17;;;;;;;8.43;1.88;;;;;;;12.24;92.02;101414.91;4979228;28;20055;-44
2022/10/19 03:12:04;;;;;;;7.88;1.77;;;;;;;12.23;92.08;101405.75;4978547;28;20089;-44
2022/10/19 03:14:51;;;;;;;14.82;3.25;;;;;;;12.25;92.07;101401.81;4988076;28;20050;-44
2022/10/19 03:17:38;;;;;;;13.90;2.92;;;;;;;12.22;91.68;101381.13;4973432;28;20054;-43
2022/10/19 03:20:25;;;;;;;9.75;2.40;;;;;;;12.23;91.68;101391.88;4983827;28;20054;-44
2022/10/19 03:23:12;;;;;;;12.95;2.67;;;;;;;12.23;91.92;101385.53;4985737;28;20479;-44
2022/10/19 03:25:59;;;;;;;13.90;3.00;;;;;;;12.26;91.99;101395.91;4973697;28;20408;-43
2022/10/19 03:28:46;;;;;;;18.27;5.25;;;;;;;12.28;92.39;101395.59;4977101;28;20057;-48
2022/10/19 03:31:33;;;;;;;22.00;4.78;;;;;;;12.28;92.47;101392.81;4982241;28;20043;-44
2022/10/19 03:34:20;;;;;;;13.98;2.85;;;;;;;12.28;92.77;101384.50;4982183;28;20057;-44
2022/10/19 03:37:07;;;;;;;14.35;3.28;;;;;;;12.28;93.04;101365.88;4982078;28;20050;-43
2022/10/19 03:39:54;;;;;;;10.77;2.70;;;;;;;12.28;93.32;101354.78;4970214;28;20038;-43
2022/10/19 03:42:41;;;;;;;21.30;4.93;;;;;;;12.27;93.47;101358.69;4979754;28;20058;-44
2022/10/19 03:45:28;;;;;;;21.00;4.18;;;;;;;12.27;93.53;101363.41;4981272;28;20058;-49
2022/10/19 03:48:15;;;;;;;18.50;4.15;;;;;;;12.27;93.54;101375.34;4980479;28;20054;-44
2022/10/19 03:51:05;;;;;;;23.27;3.35;;;;;;;12.28;93.74;101365.88;4970607;28;20500;-52
2022/10/19 03:53:54;;;;;;;11.57;2.78;;;;;;;12.27;93.74;101374.53;4975884;28;20067;-44
2022/10/19 03:56:41;;;;;;;21.23;5.57;;;;;;;12.27;93.88;101371.75;4985277;28;20058;-46
2022/10/19 03:59:28;;;;;;;14.50;3.22;;;;;;;12.26;94.08;101356.25;4972733;28;20059;-45
2022/10/19 04:02:15;;;;;;;25.20;7.03;;;;;;;12.25;94.07;101366.56;4977243;28;20046;-43
2022/10/19 04:05:02;;;;;;;15.10;3.88;;;;;;;12.23;94.17;101355.00;4985594;28;20054;-43
2022/10/19 04:07:50;;;;;;;16.67;3.08;;;;;;;12.21;94.01;101360.88;4982580;28;20042;-44
2022/10/19 04:10:37;;;;;;;8.93;2.53;;;;;;;12.21;94.25;101360.88;4983239;28;20042;-45
2022/10/19 04:13:24;;;;;;;16.15;2.80;;;;;;;12.19;94.47;101356.81;4980497;28;20051;-44
2022/10/19 04:16:12;;;;;;;16.98;3.17;;;;;;;12.15;94.42;101345.56;4980144;28;20062;-42
2022/10/19 04:19:00;;;;;;;18.58;2.40;;;;;;;12.13;94.45;101349.84;4984119;28;20057;-46
2022/10/19 04:21:48;;;;;;;12.63;4.18;;;;;;;12.10;94.77;101331.09;4980208;28;20062;-42
2022/10/19 04:24:35;;;;;;;16.25;5.07;;;;;;;12.04;94.80;101321.38;4982862;28;20054;-42
2022/10/19 04:27:22;;;;;;;16.65;3.33;;;;;;;11.98;95.28;101328.28;4972443;28;20054;-42
2022/10/19 04:30:09;;;;;;;23.23;3.53;;;;;;;11.94;95.60;101335.66;4985115;28;20080;-43
2022/10/19 04:32:56;;;;;;;13.98;3.25;;;;;;;11.89;95.70;101335.84;4975374;28;20046;-46
2022/10/19 04:35:43;;;;;;;20.23;4.03;;;;;;;11.86;96.06;101331.00;4984722;28;20156;-42
2022/10/19 04:38:31;;;;;;;25.63;4.63;;;;;;;11.83;96.03;101320.59;4986585;28;20046;-41
2022/10/19 04:41:19;;;;;;;16.15;3.25;;;;;;;11.82;95.99;101293.97;4977248;28;20395;-41
2022/10/19 04:44:06;;;;;;;21.38;4.85;;;;;;;11.78;96.46;101301.38;4975920;28;20515;-41
2022/10/19 04:46:53;;;;;;;12.57;3.83;;;;;;;11.78;96.81;101290.28;4981921;28;20046;-43
2022/10/19 04:49:40;;;;;;;26.52;3.78;;;;;;;11.77;97.13;101300.56;4986686;28;20054;-42
2022/10/19 04:52:27;;;;;;;19.50;3.58;;;;;;;11.77;97.04;101310.84;4973921;28;20054;-43
2022/10/19 04:55:14;;;;;;;19.77;5.22;;;;;;;11.78;97.41;101309.69;4984905;28;20427;-43
2022/10/19 04:58:01;;;;;;;29.85;7.28;;;;;;;11.78;97.43;101301.38;4980370;28;20054;-42
2022/10/19 05:00:49;;;;;;;14.27;3.85;;;;;;;11.79;97.69;101294.66;4976953;28;20051;-42
2022/10/19 05:03:36;;;;;;;16.98;3.42;;;;;;;11.77;97.82;101283.09;4969754;28;20133;-42
2022/10/19 05:06:23;;;;;;;16.23;4.30;;;;;;;11.76;97.97;101275.91;4969639;28;20404;-46
2022/10/19 05:09:10;;;;;;;18.48;3.45;;;;;;;11.75;98.21;101274.31;4968169;28;20416;-43
2022/10/19 05:11:57;;;;;;;30.00;6.38;;;;;;;11.74;98.32;101250.47;4974121;28;20054;-43
2022/10/19 05:14:44;;;;;;;19.33;5.35;;;;;;;11.72;98.58;101264.69;4968907;28;20203;-46
2022/10/19 05:17:31;;;;;;;28.65;3.80;;;;;;;11.72;98.64;101266.66;4980198;28;20404;-43
2022/10/19 05:20:19;;;;;;;16.85;3.80;;;;;;;11.71;98.94;101259.47;4969950;28;20046;-49
2022/10/19 05:23:06;;;;;;;18.90;3.65;;;;;;;11.71;98.87;101263.06;4969556;28;20050;-42
2022/10/19 05:26:16;;;;;;;20.80;3.80;;;;;;;11.71;99.00;101265.03;4969025;28;20058;-43
2022/10/19 05:29:03;;;;;;;12.10;3.25;;;;;;;11.70;99.02;101255.91;4980794;28;20057;-43
2022/10/19 05:31:50;;;;;;;26.88;6.35;;;;;;;11.71;99.17;101263.06;4978455;28;20504;-43
2022/10/19 05:34:37;;;;;;;14.95;4.22;;;;;;;11.71;99.31;101268.63;4981303;28;20104;-42
2022/10/19 05:37:24;;;;;;;22.00;4.05;;;;;;;11.72;99.47;101275.81;4979740;28;20076;-42
2022/10/19 05:40:11;;;;;;;16.52;5.15;;;;;;;11.71;99.56;101276.13;4976863;28;20054;-46
2022/10/19 05:42:58;;;;;;;15.43;3.80;;;;;;;11.72;99.86;101261.94;4977252;28;20053;-43
2022/10/19 05:45:45;;;;;;;21.17;4.78;;;;;;;11.71;99.87;101245.59;4981095;28;20054;-42
2022/10/19 05:48:33;;;;;;;29.48;6.47;;;;;;;11.71;99.97;101246.44;4975685;28;20055;-46
2022/10/19 05:51:22;;;;;;;27.27;5.60;;;;;;;11.69;100.00;101256.25;4982281;28;20369;-42
2022/10/19 05:54:13;;;;;;;25.38;8.48;;;;;;;11.69;100.00;101243.19;4977803;28;20065;-42
2022/10/19 05:57:00;;;;;;;27.15;6.25;;;;;;;11.69;100.00;101245.97;4982500;28;20061;-43
2022/10/19 05:59:47;;;;;;;34.28;6.25;;;;;;;11.71;100.00;101240.06;4975586;28;20050;-42
2022/10/19 06:02:34;;;;;;;30.70;5.97;;;;;;;11.72;100.00;101241.69;4982741;28;20043;-49
2022/10/19 06:05:20;;;;;;;24.88;8.43;;;;;;;11.70;100.00;101258.69;4984672;28;20492;-42
2022/10/19 06:08:07;;;;;;;29.30;7.55;;;;;;;11.70;100.00;101260.66;4979394;28;20065;-42
2022/10/19 06:11:08;;;;;;;24.67;6.95;;;;;;;11.68;100.00;101265.66;4974127;28;20408;-43
2022/10/19 06:13:58;;;;;;;23.80;6.60;;;;;;;11.67;100.00;101261.28;4977301;28;20058;-44
2022/10/19 06:16:45;;;;;;;32.50;7.18;;;;;;;11.67;100.00;101245.47;4990044;28;20520;-47
2022/10/19 06:19:32;;;;;;;31.42;8.30;;;;;;;11.67;100.00;101247.44;4978163;28;20046;-44
2022/10/19 06:22:19;;;;;;;30.13;7.70;;;;;;;11.69;100.00;101247.91;4977412;28;20050;-43
2022/10/19 06:25:07;;;;;;;26.52;7.22;;;;;;;11.69;100.00;101242.38;4977322;28;20055;-44
2022/10/19 06:27:54;;;;;;;28.05;9.63;;;;;;;11.69;100.00;101245.97;4970201;28;20054;-43
2022/10/19 06:30:41;;;;;;;25.40;9.00;;;;;;;11.71;100.00;101217.88;4978576;28;20145;-45
2022/10/19 06:33:31;;;;;;;36.95;8.73;;;;;;;11.71;100.00;101242.84;4988452;28;20105;-43
2022/10/19 06:36:24;;;;;;;34.17;8.32;;;;;;;11.72;100.00;101247.25;4978251;28;20074;-48
2022/10/19 06:39:11;;;;;;;28.95;8.10;;;;;;;11.73;100.00;101255.22;4986304;28;20524;-43
2022/10/19 06:41:58;;;;;;;30.10;6.93;;;;;;;11.74;100.00;101251.28;4970085;28;20039;-49
2022/10/19 06:44:45;;;;;;;37.33;8.80;;;;;;;11.76;100.00;101250.94;4970651;28;20047;-44
2022/10/19 06:47:33;;;;;;;42.28;9.63;;;;;;;11.78;100.00;101248.66;4969136;28;20054;-44
2022/10/19 06:50:20;;;;;;;34.33;10.48;;;;;;;11.79;100.00;101242.75;4972606;28;20083;-44
2022/10/19 06:53:07;;;;;;;41.00;9.88;;;;;;;11.82;100.00;101241.28;4980747;28;20058;-44
2022/10/19 06:55:58;;;;;;;44.63;11.40;;;;;;;11.83;100.00;101240.13;4988529;28;20058;-45
2022/10/19 06:58:45;;;;;;;25.33;8.95;;;;;;;11.84;100.00;101227.84;4977473;28;20051;-44
2022/10/19 07:01:32;;;;;;;34.85;8.80;;;;;;;11.86;100.00;101236.66;4978289;28;20559;-44
2022/10/19 07:04:19;;;;;;;38.05;9.27;;;;;;;11.88;100.00;101220.50;4972654;28;20504;-44
2022/10/19 07:07:06;;;;;;;32.03;10.18;;;;;;;11.90;100.00;101226.50;4974096;28;20509;-51
2022/10/19 07:09:53;;;;;;;28.73;9.10;;;;;;;11.92;100.00;101229.72;4980568;28;20061;-49
2022/10/19 07:12:40;;;;;;;32.15;9.00;;;;;;;11.94;100.00;101227.44;4983300;28;20046;-44
2022/10/19 07:15:27;;;;;;;26.13;9.50;;;;;;;11.94;100.00;101219.13;4975468;28;20118;-45
2022/10/19 07:18:14;;;;;;;26.45;7.88;;;;;;;11.95;100.00;101234.59;4981022;28;20516;-44
2022/10/19 07:21:04;;;;;;;24.10;7.63;;;;;;;11.94;100.00;101228.25;4981751;28;20051;-45
2022/10/19 07:23:51;;;;;;;30.85;9.25;;;;;;;11.93;100.00;101215.53;4969978;28;20058;-51
2022/10/19 07:26:38;;;;;;;25.38;10.40;;;;;;;11.93;100.00;101236.91;4976517;28;20054;-47
2022/10/19 07:29:25;;;;;;;25.42;8.82;;;;;;;11.93;100.00;101229.41;4982061;28;20054;-46
2022/10/19 07:32:12;;;;;;;20.50;7.38;;;;;;;11.94;100.00;101221.91;4971811;28;20051;-46
2022/10/19 07:34:59;;;;;;;26.05;9.18;;;;;;;11.94;100.00;101219.91;4968886;28;20873;-46
2022/10/19 07:37:46;;;;;;;24.77;9.57;;;;;;;11.96;100.00;101208.50;4981289;28;20054;-50
2022/10/19 07:40:34;;;;;;;19.45;9.02;;;;;;;11.97;100.00;101201.75;4981765;28;20051;-48
2022/10/19 07:43:21;;;;;;;32.50;10.48;;;;;;;11.97;100.00;101197.03;4967284;28;20091;-45
2022/10/19 07:46:11;;;;;;;21.45;9.43;;;;;;;11.97;100.00;101213.69;4982578;28;20053;-48
2022/10/19 07:48:59;;;;;;;30.85;11.68;;;;;;;11.98;100.00;101206.19;4982734;28;20046;-45
2022/10/19 07:51:46;;;;;;;29.48;10.13;;;;;;;11.99;100.00;101202.25;4972152;28;20062;-46
2022/10/19 07:54:19;;;;;;;25.77;10.20;;;;;;;11.99;100.00;101202.25;4985512;28;20096;-45
2022/10/19 07:56:45;;;;;;;29.42;10.15;;;;;;;12.00;100.00;101199.13;4985362;28;20140;-46
2022/10/19 07:59:15;;;;;;;23.67;10.50;;;;;;;12.01;100.00;101211.03;4981153;28;20142;-46
2022/10/19 08:01:43;;;;;;;27.15;10.75;;;;;;;12.02;100.00;101209.91;4986869;28;20053;-45
2022/10/19 08:04:10;;;;;;;22.90;10.77;;;;;;;12.01;100.00;101216.59;4983351;28;20058;-46
2022/10/19 08:06:56;;;;;;;30.88;10.30;;;;;;;12.01;100.00;101220.19;4980634;28;20038;-53
2022/10/19 08:09:23;;;;;;;28.40;10.23;;;;;;;12.03;100.00;101225.38;4985718;28;20065;-46
2022/10/19 08:12:10;;;;;;;23.30;9.10;;;;;;;12.03;100.00;101214.28;4968364;28;20064;-47
2022/10/19 08:14:41;;;;;;;26.38;9.68;;;;;;;12.03;100.00;101220.66;4972933;28;20500;-44
2022/10/19 08:17:10;;;;;;;28.95;10.15;;;;;;;12.04;100.00;101221.47;4984848;28;20481;-47
2022/10/19 08:19:41;;;;;;;28.65;10.10;;;;;;;12.04;100.00;101227.00;4979238;28;20046;-44
2022/10/19 08:22:09;;;;;;;29.92;11.52;;;;;;;12.05;100.00;101232.19;4965847;28;20508;-44
2022/10/19 08:24:36;;;;;;;18.83;10.93;;;;;;;12.05;100.00;101223.06;4982966;28;20046;-43
2022/10/19 08:27:02;;;;;;;28.70;12.85;;;;;;;12.06;100.00;101224.69;4976817;28;20054;-44
2022/10/19 08:29:29;;;;;;;32.15;11.75;;;;;;;12.07;100.00;101227.13;4973222;28;20431;-47
2022/10/19 08:31:58;;;;;;;21.25;10.02;;;;;;;12.08;100.00;101227.94;4976938;28;20560;-48
2022/10/19 08:34:25;;;;;;;23.27;9.25;;;;;;;12.08;100.00;101211.28;4967978;28;20078;-43
2022/10/19 08:36:54;;;;;;;22.33;9.15;;;;;;;12.06;100.00;101197.75;4969862;28;20059;-44
2022/10/19 08:39:21;;;;;;;13.73;7.70;;;;;;;12.08;100.00;101200.19;4969674;28;20476;-46
2022/10/19 08:41:52;;;;;;;21.92;7.63;;;;;;;12.10;100.00;101192.31;4967724;28;20074;-50
2022/10/19 08:44:54;;;;;;;19.27;9.20;;;;;;;12.10;100.00;101197.84;4969169;28;20510;-51
2022/10/19 08:47:23;;;;;;;;;;;;;;;12.09;100.00;101197.06;4968702;28;20480;-51
2022/10/19 08:49:51;;;;;;;23.40;10.05;;;;;;;12.08;100.00;101195.44;4950785;28;19922;-44
2022/10/19 08:52:24;;;;;;;26.40;12.02;;;;;;;12.08;100.00;101212.09;4971162;28;20051;-44
2022/10/19 08:55:07;;;;;;;24.95;10.93;;;;;;;12.11;100.00;101214.19;4982270;28;20051;-44
2022/10/19 08:58:07;;;;;;;27.48;11.98;;;;;;;12.11;100.00;101211.41;4968257;28;20059;-48
2022/10/19 09:00:54;;;;;;;31.05;11.80;;;;;;;12.12;100.00;101188.06;4939127;28;20047;-45
2022/10/19 09:03:27;;;;;;;24.63;10.32;;;;;;;12.11;100.00;101205.84;4974362;28;20046;-48
2022/10/19 09:06:22;;;;;;;30.50;11.90;;;;;;;12.10;100.00;101198.69;4971190;28;20057;-44
2022/10/19 09:08:51;;;;;;;23.58;9.82;;;;;;;12.08;100.00;101184.34;4968661;28;20049;-49
2022/10/19 09:11:26;;;;;;;36.15;11.50;;;;;;;12.06;100.00;101208.03;4972244;28;20089;-44
2022/10/19 09:14:09;;;;;;;31.42;10.25;;;;;;;12.03;100.00;101203.19;4968391;28;20413;-44
2022/10/19 09:16:36;;;;;;;43.55;10.30;;;;;;;11.97;100.00;101213.69;4967975;28;20051;-52
2022/10/19 09:19:30;;;;;;;25.55;7.88;;;;;;;11.96;100.00;101219.59;4967608;28;20061;-44
2022/10/19 09:22:02;;;;;;;31.75;8.40;;;;;;;11.90;100.00;101216.22;4978106;28;20684;-46
2022/10/19 09:25:12;;;;;;;34.22;8.95;;;;;;;11.90;100.00;101209.84;4983476;28;20477;-44
2022/10/19 09:27:40;;;;;;;34.45;8.05;;;;;;;11.86;100.00;101204.16;4979024;28;20050;-44
2022/10/19 09:30:19;;;;;;;23.45;8.00;;;;;;;11.84;100.00;101205.66;4973541;28;20157;-44
2022/10/19 09:32:50;;;;;;;28.15;7.57;;;;;;;11.83;100.00;101207.66;4970510;28;20035;-44
2022/10/19 09:35:26;;;;;;;32.97;8.80;;;;;;;11.82;100.00;101208.78;4975477;28;20154;-44
2022/10/19 09:37:53;;;;;;;26.95;10.85;;;;;;;11.82;100.00;101207.97;4970131;28;20058;-51
2022/10/19 09:40:24;;;;;;;31.10;9.05;;;;;;;11.81;100.00;101201.59;4967870;28;20050;-43
2022/10/19 09:42:56;;;;;;;28.55;10.60;;;;;;;11.82;100.00;101200.47;4967105;28;20046;-45
2022/10/19 09:45:48;;;;;;;35.05;10.35;;;;;;;11.81;100.00;101200.81;4972624;28;20074;-44
2022/10/19 09:48:38;;;;;;;26.52;8.20;;;;;;;11.80;100.00;101199.19;4966702;28;20058;-49
2022/10/19 09:51:14;;;;;;;25.63;8.10;;;;;;;11.80;100.00;101194.47;4980307;28;20143;-44
2022/10/19 09:53:50;;;;;;;32.15;8.00;;;;;;;11.81;100.00;101189.72;4967737;28;20043;-43
2022/10/19 09:56:19;;;;;;;13.95;4.57;;;;;;;11.81;100.00;101182.19;4977553;28;20057;-43
2022/10/19 09:58:48;;;;;;;15.85;6.00;;;;;;;11.83;100.00;101176.31;4981479;28;20108;-49
2022/10/19 10:01:35;;;;;;;11.82;4.43;;;;;;;11.84;100.00;101172.38;4974849;28;20038;-43
2022/10/19 10:04:12;;;;;;;16.13;4.93;;;;;;;11.84;100.00;101167.63;4973072;28;20052;-44
2022/10/19 10:06:40;;;;;;;30.80;6.95;;;;;;;11.85;100.00;101174.00;4975448;28;20126;-45
2022/10/19 10:09:17;;;;;;;13.93;5.70;;;;;;;11.86;100.00;101178.41;4968841;28;20047;-44
2022/10/19 10:11:48;;;;;;;19.33;6.05;;;;;;;11.87;100.00;101182.78;4967250;28;20062;-46
2022/10/19 10:14:38;;;;;;;32.08;8.18;;;;;;;11.86;100.00;101181.19;4967642;28;20050;-45
2022/10/19 10:17:15;;;;;;;14.75;6.10;;;;;;;11.86;100.00;101175.63;4967202;28;20047;-52
2022/10/19 10:20:09;;;;;;;20.13;5.40;;;;;;;11.85;100.00;101179.56;4975709;28;20078;-43
2022/10/19 10:22:36;;;;;;;18.52;5.57;;;;;;;11.82;100.00;101169.13;4966733;28;20082;-45
2022/10/19 10:25:15;;;;;;;27.23;7.97;;;;;;;11.80;100.00;101161.16;4973429;28;20135;-43
2022/10/19 10:27:54;;;;;;;20.75;7.57;;;;;;;11.80;100.00;101149.25;4956864;28;20522;-54
2022/10/19 10:30:21;;;;;;;28.27;9.40;;;;;;;11.81;100.00;101142.56;4979074;28;20521;-47
2022/10/19 10:32:53;;;;;;;32.40;7.70;;;;;;;11.79;100.00;101130.97;4973638;28;20054;-44
2022/10/19 10:35:22;;;;;;;;;;;;;;;11.76;100.00;101126.13;4976827;28;20050;-44
2022/10/19 10:37:50;;;;;;;31.00;7.65;;;;;;;11.75;100.00;101110.66;4974359;28;19933;-44
2022/10/19 10:40:29;;;;;;;33.95;7.97;;;;;;;11.74;100.00;101111.78;4970633;28;20101;-44
2022/10/19 10:43:03;;;;;;;26.42;7.68;;;;;;;11.73;100.00;101099.88;4972527;28;20410;-45
2022/10/19 10:45:29;;;;;;;29.75;8.10;;;;;;;11.73;100.00;101104.66;4981103;28;20057;-44
2022/10/19 10:47:58;;;;;;;25.10;7.43;;;;;;;11.74;100.00;101101.50;4976817;28;20388;-49
2022/10/19 10:50:33;;;;;;;31.23;8.10;;;;;;;11.74;100.00;101089.59;4971129;28;20060;-47
2022/10/19 10:53:45;;;;;;;41.42;10.00;;;;;;;11.74;100.00;101084.88;4979332;28;20432;-43
2022/10/19 10:56:34;;;;;;;37.22;9.00;;;;;;;11.75;100.00;101074.59;4979906;28;20861;-44
2022/10/19 10:59:09;;;;;;;29.30;7.45;;;;;;;11.74;100.00;101062.69;4974078;28;20378;-44
2022/10/19 11:01:40;;;;;;;39.60;10.05;;;;;;;11.75;100.00;101063.50;4975497;28;20127;-45
2022/10/19 11:04:16;;;;;;;36.83;8.90;;;;;;;11.77;100.00;101072.28;4970077;28;20059;-51
2022/10/19 11:06:50;;;;;;;36.08;9.77;;;;;;;11.76;100.00;101093.66;4970813;28;20047;-44
2022/10/19 11:09:45;;;;;;;43.78;9.80;;;;;;;11.78;100.00;101096.09;4974543;28;20108;-47
2022/10/19 11:12:15;;;;;;;47.67;11.65;;;;;;;11.80;100.00;101085.47;4972112;28;20420;-45
2022/10/19 11:14:55;;;;;;;33.80;7.85;;;;;;;11.81;100.00;101087.09;4970162;28;20101;-44
2022/10/19 11:17:29;;;;;;;42.08;9.50;;;;;;;11.83;100.00;101093.09;4984395;28;20520;-46
2022/10/19 11:19:57;;;;;;;45.63;9.48;;;;;;;11.84;100.00;101089.16;4980187;28;20043;-43
2022/10/19 11:22:48;;;;;;;55.20;10.73;;;;;;;11.87;100.00;101077.38;4972784;28;20062;-48
2022/10/19 11:25:30;;;;;;;44.08;9.82;;;;;;;11.89;100.00;101063.94;4969293;28;20204;-44
2022/10/19 11:28:01;;;;;;;31.10;8.55;;;;;;;11.89;100.00;101061.16;4982764;28;20061;-47
2022/10/19 11:30:35;;;;;;;47.08;9.30;;;;;;;11.90;100.00;101052.53;4978485;28;20046;-44
2022/10/19 11:33:34;;;;;;;41.00;9.80;;;;;;;11.92;100.00;101035.50;4969305;28;20421;-44
2022/10/19 11:36:24;;;;;;;28.70;9.63;;;;;;;11.93;100.00;101026.03;4969593;28;20051;-48
2022/10/19 11:39:06;;;;;;;50.78;11.48;;;;;;;11.91;100.00;101022.81;4974459;28;20407;-44
2022/10/19 11:41:57;;;;;;;37.92;10.07;;;;;;;11.89;100.00;100997.38;4983347;28;20055;-47
2022/10/19 11:44:44;;;;;;;47.03;8.52;;;;;;;11.84;100.00;101000.38;4982404;28;20485;-44
2022/10/19 11:47:32;;;;;;;50.38;11.68;;;;;;;11.81;100.00;101006.63;4969253;28;20054;-45
2022/10/19 11:50:36;;;;;;;51.47;11.05;;;;;;;11.80;100.00;101005.00;4969316;28;20375;-44
2022/10/19 11:53:34;;;;;;;41.28;9.02;;;;;;;11.75;100.00;100992.19;4969968;28;20354;-44
2022/10/19 11:56:39;;;;;;;49.63;10.13;;;;;;;11.70;100.00;100981.34;4977840;28;20164;-44
2022/10/19 11:59:50;;;;;;;37.65;8.88;;;;;;;11.66;100.00;100994.22;4951015;28;20085;-50
2022/10/19 12:02:38;;;;;;;61.05;10.52;;;;;;;11.63;100.00;100987.41;4974595;28;20054;-43
2022/10/19 12:05:13;;;;;;;42.33;9.75;;;;;;;11.65;100.00;100989.03;4969269;28;20047;-44
2022/10/19 12:08:04;;;;;;;47.72;8.98;;;;;;;11.63;100.00;100976.31;4982598;28;20047;-47
2022/10/19 12:14:30;;;;;;;35.80;7.00;;;;;;;11.56;100.00;100953.91;4980376;28;20679;-45
2022/10/19 12:17:04;;;;;;;52.20;9.77;;;;;;;11.54;100.00;100956.19;4988459;28;20128;-48
2022/10/19 12:19:41;;;;;;;46.95;10.57;;;;;;;11.52;100.00;100955.75;4987572;28;20049;-43
2022/10/19 12:22:16;;;;;;;55.92;10.48;;;;;;;11.51;100.00;100965.22;4989097;28;20046;-45
2022/10/19 12:24:42;;;;;;;54.65;10.57;;;;;;;11.50;100.00;100958.06;4988497;28;20050;-44
2022/10/19 12:27:15;;;;;;;38.83;10.52;;;;;;;11.51;100.00;100950.56;4987514;28;20496;-48
2022/10/19 12:29:50;;;;;;;59.00;11.38;;;;;;;11.48;100.00;100960.38;4989091;28;20062;-43
2022/10/19 12:32:21;;;;;;;60.85;12.40;;;;;;;11.48;100.00;100965.09;4988053;28;20412;-44
2022/10/19 12:35:04;;;;;;;60.10;10.70;;;;;;;11.47;100.00;100958.75;4986968;28;20050;-43
2022/10/19 12:37:38;;;;;;;;;;;;;;;11.46;100.00;100912.75;4989469;28;20053;-43